Time;durP1;ratioP1;P1;durP2;ratioP2;P2;SDS_P1;SDS_P2;PMS_P1;PMS_P2;Temp;Humidity;BMP_temperature;BMP_pressure;BME280_temperature;BME280_humidity;BME280_pressure;Samples;Min_cycle;Max_cycle;Signal;HPM_P1;HPM_P2
2022/08/20 00:01:16;;;;;;;9.80;4.50;;;;;;;25.13;56.43;100094.80;104315;1284;139896;-86
2022/08/20 00:03:44;;;;;;;8.00;4.60;;;;;;;25.14;56.39;100095.02;104770;1284;109737;-84
2022/08/20 00:06:22;;;;;;;9.40;5.40;;;;;;;25.16;56.30;100100.37;106918;1283;141288;-84
2022/08/20 00:08:50;;;;;;;8.80;4.70;;;;;;;25.19;56.14;100104.79;106805;1282;108166;-84
2022/08/20 00:11:22;;;;;;;8.90;4.60;;;;;;;25.23;56.33;100103.73;104427;1283;95167;-86
2022/08/20 00:13:55;;;;;;;10.20;5.50;;;;;;;25.24;56.10;100111.42;104302;1283;138366;-86
2022/08/20 00:16:25;;;;;;;9.70;4.40;;;;;;;25.21;56.75;100112.25;104300;1283;110111;-87
2022/08/20 00:18:54;;;;;;;11.50;5.00;;;;;;;25.11;56.67;100102.06;104298;1282;139799;-86
2022/08/20 00:21:21;;;;;;;11.50;4.80;;;;;;;25.04;56.87;100101.80;104422;1284;109471;-86
2022/08/20 00:23:54;;;;;;;10.10;4.60;;;;;;;25.07;57.19;100104.95;104207;1283;139621;-86
2022/08/20 00:26:23;;;;;;;10.80;5.40;;;;;;;24.97;57.40;100098.23;104168;1284;95811;-86
2022/08/20 00:28:52;;;;;;;9.90;5.30;;;;;;;24.99;57.07;100104.94;104112;1282;109002;-86
2022/08/20 00:31:23;;;;;;;9.30;4.60;;;;;;;25.04;57.10;100105.43;104084;1284;140062;-85
2022/08/20 00:33:52;;;;;;;10.70;4.80;;;;;;;24.94;57.60;100096.67;104310;1284;109895;-86
2022/08/20 00:36:21;;;;;;;11.00;4.70;;;;;;;24.78;57.35;100096.22;103978;1282;139788;-85
2022/08/20 00:39:00;;;;;;;10.70;5.10;;;;;;;24.73;57.73;100094.05;104052;1282;95256;-85
2022/08/20 00:41:28;;;;;;;8.80;4.30;;;;;;;24.79;58.02;100094.80;104078;1284;110466;-85
2022/08/20 00:44:13;;;;;;;10.50;5.30;;;;;;;24.80;58.04;100086.73;103774;1284;138694;-85
2022/08/20 00:46:43;;;;;;;11.20;5.20;;;;;;;24.70;57.89;100078.60;104057;1282;108255;-85
2022/08/20 00:49:16;;;;;;;9.60;4.80;;;;;;;24.58;58.01;100073.85;104032;1284;140235;-84
2022/08/20 00:52:06;;;;;;;11.60;5.00;;;;;;;24.50;57.68;100066.55;104128;1284;95774;-84
2022/08/20 00:54:42;;;;;;;10.40;5.00;;;;;;;24.48;58.24;100061.96;103978;1282;139157;-85
2022/08/20 00:57:21;;;;;;;10.30;4.60;;;;;;;24.57;58.07;100060.65;104366;1283;99062;-85
2022/08/20 00:59:51;;;;;;;9.00;5.00;;;;;;;24.61;57.92;100062.65;104388;1284;109341;-85
2022/08/20 01:02:22;;;;;;;8.80;5.00;;;;;;;24.62;57.75;100067.27;104309;1284;95154;-86
2022/08/20 01:04:53;;;;;;;8.90;4.70;;;;;;;24.57;57.52;100059.55;104400;1282;95113;-85
2022/08/20 01:07:33;;;;;;;11.10;4.70;;;;;;;24.53;57.58;100054.49;104185;1284;139846;-87
2022/08/20 01:10:10;;;;;;;10.20;5.10;;;;;;;24.48;57.37;100046.01;104250;1284;98380;-85
2022/08/20 01:12:39;;;;;;;10.30;4.80;;;;;;;24.46;57.48;100045.08;104137;1284;140401;-89
2022/08/20 01:15:12;;;;;;;12.00;5.00;;;;;;;24.43;57.44;100041.73;104475;1284;95789;-86
2022/08/20 01:17:46;;;;;;;11.40;4.80;;;;;;;24.43;57.65;100035.59;104344;1284;95232;-84
2022/08/20 01:20:27;;;;;;;9.00;4.50;;;;;;;24.43;57.50;100032.66;104275;1282;141331;-85
2022/08/20 01:23:31;;;;;;;11.70;4.90;;;;;;;24.47;57.42;100031.27;104298;1284;99586;-87
2022/08/20 01:26:12;;;;;;;10.90;5.10;;;;;;;24.45;57.38;100031.22;104096;1284;139109;-86
2022/08/20 01:28:47;;;;;;;11.50;5.40;;;;;;;24.43;57.55;100020.21;104412;1282;95315;-87
2022/08/20 01:31:19;;;;;;;9.20;5.00;;;;;;;24.41;57.73;100016.53;104301;1284;138920;-86
2022/08/20 01:33:49;;;;;;;9.80;5.20;;;;;;;24.38;58.02;100011.31;104335;1283;110732;-85
2022/08/20 01:36:22;;;;;;;12.10;5.00;;;;;;;24.34;57.88;100006.98;104225;1283;140688;-88
2022/08/20 01:38:50;;;;;;;13.20;5.00;;;;;;;24.28;58.05;100010.42;104400;1282;109158;-89
2022/08/20 01:41:24;;;;;;;11.00;5.50;;;;;;;24.27;57.98;100007.27;104281;1282;95772;-89
2022/08/20 01:43:56;;;;;;;9.50;4.90;;;;;;;24.26;58.18;100004.08;104196;1284;139064;-91
2022/08/20 01:46:29;;;;;;;13.30;5.10;;;;;;;24.27;58.33;99999.61;104336;1282;108780;-88
2022/08/20 01:48:59;;;;;;;9.90;5.30;;;;;;;24.27;58.48;99988.02;104217;1284;140054;-88
2022/08/20 01:51:28;;;;;;;9.70;5.20;;;;;;;24.24;58.42;99990.27;104268;1284;109378;-86
2022/08/20 01:54:01;;;;;;;9.70;5.20;;;;;;;24.23;58.32;99983.87;104182;1284;141290;-86
2022/08/20 01:56:30;;;;;;;9.40;4.80;;;;;;;24.17;58.62;99989.45;104024;1282;95718;-89
2022/08/20 01:59:01;;;;;;;11.60;5.10;;;;;;;24.13;58.48;99990.94;104115;1282;109193;-87
2022/08/20 02:01:36;;;;;;;9.20;4.90;;;;;;;24.16;58.79;99986.69;104067;1284;140855;-88
2022/08/20 02:04:13;;;;;;;9.00;5.40;;;;;;;24.12;58.90;99985.92;104068;1283;108699;-87
2022/08/20 02:06:48;;;;;;;9.40;5.20;;;;;;;24.13;58.87;99981.14;103994;1283;140443;-87
2022/08/20 02:09:29;;;;;;;11.20;5.10;;;;;;;24.15;58.85;99985.30;104271;1284;95165;-88
2022/08/20 02:11:57;;;;;;;12.70;5.20;;;;;;;24.14;58.84;99983.73;103967;1284;140245;-88
2022/08/20 02:14:26;;;;;;;9.20;4.60;;;;;;;24.10;59.12;99984.70;104194;1284;100054;-90
2022/08/20 02:16:57;;;;;;;10.30;4.80;;;;;;;24.08;59.19;99983.58;104106;1283;107896;-88
2022/08/20 02:19:34;;;;;;;9.60;5.00;;;;;;;24.05;59.20;99982.57;103989;1284;140919;-89
2022/08/20 02:22:10;;;;;;;8.10;5.30;;;;;;;24.08;59.13;99991.21;104144;1283;95436;-87
2022/08/20 02:24:38;;;;;;;11.20;5.60;;;;;;;24.08;58.85;100009.49;104072;1284;140285;-87
2022/08/20 02:27:05;;;;;;;9.70;5.10;;;;;;;24.14;58.98;100020.40;104188;1282;97270;-89
2022/08/20 02:29:33;;;;;;;10.80;5.00;;;;;;;24.13;59.03;100013.23;104203;1282;109601;-87
2022/08/20 02:32:01;;;;;;;11.10;5.20;;;;;;;24.12;58.92;100017.54;104015;1284;139804;-88
2022/08/20 02:34:49;;;;;;;9.70;5.10;;;;;;;24.20;58.74;100028.36;104135;1284;95173;-88
2022/08/20 02:37:18;;;;;;;9.40;5.00;;;;;;;24.25;58.97;100024.52;103958;1283;140017;-87
2022/08/20 02:39:46;;;;;;;8.70;5.20;;;;;;;24.17;59.18;100023.02;104182;1284;100238;-88
2022/08/20 02:42:14;;;;;;;9.70;5.00;;;;;;;24.09;59.34;100021.20;104106;1284;139567;-87
2022/08/20 02:44:42;;;;;;;9.80;5.20;;;;;;;23.98;59.86;100018.20;104104;1283;95662;-88
2022/08/20 02:47:10;;;;;;;10.40;4.90;;;;;;;23.95;59.79;100023.02;104124;1284;95543;-87
2022/08/20 02:49:38;;;;;;;11.10;5.00;;;;;;;23.86;60.14;100012.67;104036;1284;139008;-88
2022/08/20 02:52:06;;;;;;;10.00;5.00;;;;;;;23.81;60.34;100005.46;104128;1284;98881;-86
2022/08/20 02:54:34;;;;;;;8.80;5.20;;;;;;;23.76;60.36;99996.76;104021;1282;138728;-86
2022/08/20 02:57:03;;;;;;;9.80;5.20;;;;;;;23.68;60.71;99990.91;104084;1284;95152;-87
2022/08/20 02:59:31;;;;;;;9.50;5.30;;;;;;;23.64;60.72;99993.04;104118;1282;95700;-87
2022/08/20 03:01:59;;;;;;;10.70;5.40;;;;;;;23.67;60.85;99990.91;104041;1284;139766;-86
2022/08/20 03:04:29;;;;;;;10.30;5.40;;;;;;;23.68;60.90;99991.17;103924;1284;99760;-85
2022/08/20 03:06:58;;;;;;;9.90;5.50;;;;;;;23.65;60.99;99986.97;103898;1284;141303;-85
2022/08/20 03:09:26;;;;;;;11.00;5.90;;;;;;;23.58;61.10;99987.08;104130;1284;95219;-87
2022/08/20 03:11:54;;;;;;;10.50;5.50;;;;;;;23.56;61.38;99987.77;103961;1282;140754;-86
2022/08/20 03:14:21;;;;;;;10.30;5.80;;;;;;;23.59;61.04;99987.37;104099;1282;110173;-85
2022/08/20 03:16:49;;;;;;;11.40;5.60;;;;;;;23.58;61.21;99985.27;104139;1283;99813;-86
2022/08/20 03:19:17;;;;;;;10.50;5.60;;;;;;;23.57;61.15;99976.32;103924;1283;140590;-87
2022/08/20 03:21:46;;;;;;;9.50;5.50;;;;;;;23.53;61.28;99971.88;104375;1282;95557;-86
2022/08/20 03:24:14;;;;;;;9.20;5.40;;;;;;;23.48;61.41;99973.17;106740;1282;138148;-86
2022/08/20 03:26:42;;;;;;;10.50;5.50;;;;;;;23.48;61.58;99971.83;107121;1284;109161;-88
2022/08/20 03:29:10;;;;;;;10.80;5.80;;;;;;;23.47;61.80;99968.56;105333;1283;98871;-87
2022/08/20 03:31:39;;;;;;;9.70;5.50;;;;;;;23.45;61.76;99965.32;104219;1282;141322;-87
2022/08/20 03:34:07;;;;;;;11.50;5.90;;;;;;;23.48;61.55;99964.38;104214;1283;95057;-86
2022/08/20 03:36:34;;;;;;;11.40;5.90;;;;;;;23.55;61.55;99959.96;104226;1282;140383;-87
2022/08/20 03:39:06;;;;;;;10.90;5.50;;;;;;;23.59;61.61;99961.56;104660;1282;110413;-88
2022/08/20 03:41:33;;;;;;;13.10;5.80;;;;;;;23.64;61.43;99962.96;104341;1282;98974;-87
2022/08/20 03:44:01;;;;;;;12.00;5.50;;;;;;;23.68;61.16;99966.40;104426;1282;140745;-88
2022/08/20 03:46:29;;;;;;;11.80;5.90;;;;;;;23.66;61.19;99964.61;104487;1282;95278;-88
2022/08/20 03:48:57;;;;;;;11.70;5.70;;;;;;;23.61;61.49;99960.88;104273;1282;139506;-88
2022/08/20 03:51:30;;;;;;;10.00;5.90;;;;;;;23.56;61.81;99962.70;104534;1284;107392;-87
2022/08/20 03:54:10;;;;;;;12.00;5.60;;;;;;;23.58;61.75;99969.52;104339;1284;140490;-87
2022/08/20 03:56:38;;;;;;;9.20;5.80;;;;;;;23.60;61.51;99970.92;104300;1284;108681;-86
2022/08/20 03:59:07;;;;;;;12.00;6.70;;;;;;;23.66;61.51;99981.08;104323;1282;96481;-89
2022/08/20 04:01:35;;;;;;;10.10;6.20;;;;;;;23.70;61.32;99991.55;104520;1283;138533;-88
2022/08/20 04:04:14;;;;;;;10.80;6.00;;;;;;;23.75;61.25;99998.07;105053;1282;110035;-87
2022/08/20 04:06:43;;;;;;;11.60;6.40;;;;;;;23.81;61.10;100004.56;104418;1284;140791;-85
2022/08/20 04:09:10;;;;;;;9.90;6.10;;;;;;;23.83;61.14;100008.55;104550;1282;107700;-88
2022/08/20 04:11:42;;;;;;;10.70;5.70;;;;;;;23.87;61.19;100006.45;104466;1284;95261;-88
2022/08/20 04:14:11;;;;;;;10.00;6.20;;;;;;;23.81;61.47;99994.83;104350;1282;140382;-89
2022/08/20 04:16:45;;;;;;;10.40;5.90;;;;;;;23.69;61.69;99985.84;104473;1283;110211;-88
2022/08/20 04:19:15;;;;;;;9.40;5.70;;;;;;;23.62;61.81;99981.98;104357;1284;139871;-88
2022/08/20 04:21:47;;;;;;;12.60;5.90;;;;;;;23.54;61.97;99991.00;104472;1282;109605;-88
2022/08/20 04:24:16;;;;;;;12.00;6.20;;;;;;;23.52;62.17;99997.17;104360;1284;140627;-86
2022/08/20 04:27:03;;;;;;;11.00;6.20;;;;;;;23.58;62.14;100001.61;104447;1283;95930;-88
2022/08/20 04:29:32;;;;;;;11.40;6.30;;;;;;;23.63;62.05;100002.55;104498;1282;110220;-89
2022/08/20 04:32:05;;;;;;;9.10;5.40;;;;;;;23.63;62.17;100005.08;104369;1282;141048;-89
2022/08/20 04:34:33;;;;;;;12.10;6.10;;;;;;;23.55;62.45;100003.77;104591;1282;109300;-85
2022/08/20 04:37:02;;;;;;;9.50;6.00;;;;;;;23.42;62.63;100005.27;104305;1284;141021;-88
2022/08/20 04:39:30;;;;;;;10.40;5.60;;;;;;;23.28;63.13;100001.93;104461;1283;95385;-86
2022/08/20 04:41:58;;;;;;;10.20;6.30;;;;;;;23.19;63.23;100002.52;104383;1284;141037;-88
2022/08/20 04:44:27;;;;;;;10.30;6.20;;;;;;;23.16;63.53;100001.66;104517;1282;100119;-87
2022/08/20 04:46:55;;;;;;;12.20;6.40;;;;;;;23.24;63.59;99999.22;104459;1284;109316;-87
2022/08/20 04:49:25;;;;;;;9.80;6.20;;;;;;;23.22;63.67;100003.52;104403;1282;139834;-87
2022/08/20 04:51:53;;;;;;;12.30;6.40;;;;;;;23.23;63.86;100003.50;104418;1283;95553;-86
2022/08/20 04:54:21;;;;;;;11.30;6.00;;;;;;;23.27;63.87;100005.64;104338;1283;141417;-88
2022/08/20 04:56:49;;;;;;;10.50;6.20;;;;;;;23.34;63.70;100009.58;104512;1283;98884;-87
2022/08/20 04:59:17;;;;;;;10.80;6.70;;;;;;;23.32;63.77;100007.40;104610;1282;109274;-86
2022/08/20 05:01:45;;;;;;;10.40;6.20;;;;;;;23.30;63.98;100007.41;104636;1283;139121;-87
2022/08/20 05:04:12;;;;;;;11.50;6.00;;;;;;;23.28;64.15;100005.38;105301;1284;95180;-87
2022/08/20 05:06:42;;;;;;;9.60;6.20;;;;;;;23.25;64.03;100006.02;106798;1282;139780;-87
2022/08/20 05:09:10;;;;;;;12.60;6.40;;;;;;;23.22;63.89;100010.56;106987;1282;98875;-87
2022/08/20 05:11:37;;;;;;;11.40;7.00;;;;;;;23.25;63.94;100007.15;106609;1282;106767;-89
2022/08/20 05:14:07;;;;;;;13.10;6.20;;;;;;;23.26;63.96;100012.13;104249;1284;139676;-89
2022/08/20 05:16:37;;;;;;;13.10;6.70;;;;;;;23.29;63.92;100018.36;104397;1282;95034;-89
2022/08/20 05:19:08;;;;;;;10.90;6.60;;;;;;;23.33;63.79;100018.70;104311;1282;139780;-89
2022/08/20 05:21:37;;;;;;;10.80;6.50;;;;;;;23.41;63.75;100019.33;104442;1284;99971;-88
2022/08/20 05:24:08;;;;;;;9.30;6.20;;;;;;;23.39;63.62;100023.64;104557;1283;140156;-87
2022/08/20 05:26:36;;;;;;;12.80;6.30;;;;;;;23.38;64.33;100023.52;104422;1282;95266;-87
2022/08/20 05:29:05;;;;;;;11.50;6.70;;;;;;;23.42;63.79;100019.63;104438;1282;95139;-87
2022/08/20 05:31:33;;;;;;;11.10;6.40;;;;;;;23.44;63.62;100014.50;104301;1282;140207;-88
2022/08/20 05:34:11;;;;;;;10.50;6.40;;;;;;;23.55;63.83;100010.32;104265;1284;99005;-87
2022/08/20 05:36:43;;;;;;;10.50;6.40;;;;;;;23.63;63.54;100008.21;104253;1282;138273;-87
2022/08/20 05:39:12;;;;;;;11.40;5.80;;;;;;;23.59;63.47;100001.64;104128;1283;95816;-87
2022/08/20 05:41:40;;;;;;;10.80;6.30;;;;;;;23.57;63.71;100005.79;104266;1283;95253;-87
2022/08/20 05:44:12;;;;;;;11.50;6.00;;;;;;;23.55;63.66;100003.80;104148;1282;139809;-87
2022/08/20 05:46:44;;;;;;;13.60;6.80;;;;;;;23.51;63.43;100003.04;104228;1282;100205;-87
2022/08/20 05:49:18;;;;;;;11.50;6.40;;;;;;;23.51;63.55;100002.17;104163;1282;140799;-87
2022/08/20 05:51:49;;;;;;;11.70;6.40;;;;;;;23.47;63.72;100005.38;104159;1284;95314;-86
2022/08/20 05:54:18;;;;;;;13.00;6.50;;;;;;;23.47;63.63;100000.32;104272;1284;140564;-89
2022/08/20 05:56:46;;;;;;;11.20;6.20;;;;;;;23.50;63.83;99997.73;104352;1282;110110;-89
2022/08/20 05:59:14;;;;;;;11.30;6.70;;;;;;;23.56;63.67;99999.36;104410;1283;100217;-89
2022/08/20 06:01:42;;;;;;;10.30;6.50;;;;;;;23.53;63.46;99997.58;104063;1284;138844;-89
2022/08/20 06:04:27;;;;;;;13.40;6.40;;;;;;;23.57;63.61;99998.38;104311;1283;95178;-89
2022/08/20 06:07:03;;;;;;;12.50;6.70;;;;;;;23.64;63.68;100000.16;104209;1282;139275;-87
2022/08/20 06:09:31;;;;;;;12.50;6.50;;;;;;;23.75;63.57;99995.93;104547;1284;110789;-90
2022/08/20 06:12:03;;;;;;;11.40;6.40;;;;;;;23.84;63.33;100002.31;104289;1283;141900;-88
2022/08/20 06:14:31;;;;;;;12.70;6.30;;;;;;;23.97;63.23;100002.98;104213;1284;107805;-86
2022/08/20 06:17:11;;;;;;;11.60;6.60;;;;;;;24.03;62.52;100008.80;104416;1284;95921;-88
2022/08/20 06:19:43;;;;;;;11.20;6.40;;;;;;;24.01;62.60;100006.63;104534;1284;138524;-88
2022/08/20 06:22:14;;;;;;;10.50;6.40;;;;;;;24.07;62.98;100009.80;104274;1282;110004;-88
2022/08/20 06:24:50;;;;;;;11.80;6.80;;;;;;;24.12;62.84;100009.51;104168;1284;140799;-88
2022/08/20 06:27:19;;;;;;;11.10;6.40;;;;;;;24.21;62.63;100011.23;104337;1283;109380;-86
2022/08/20 06:29:47;;;;;;;11.40;6.40;;;;;;;24.24;62.15;100011.50;104271;1284;95341;-85
2022/08/20 06:32:16;;;;;;;11.60;6.40;;;;;;;24.34;62.66;100013.54;104594;1282;137954;-86
2022/08/20 06:34:44;;;;;;;11.40;6.80;;;;;;;24.42;61.84;100019.69;104470;1283;109625;-85
2022/08/20 06:37:25;;;;;;;11.80;7.20;;;;;;;24.42;61.59;100019.91;104286;1284;140128;-87
2022/08/20 06:40:07;;;;;;;9.50;6.30;;;;;;;24.44;62.14;100017.51;104478;1284;109415;-89
2022/08/20 06:42:38;;;;;;;11.70;6.30;;;;;;;24.49;61.61;100018.67;105661;1284;140852;-84
2022/08/20 06:45:19;;;;;;;11.40;6.30;;;;;;;24.52;61.86;100015.02;106456;1284;93262;-85
2022/08/20 06:47:47;;;;;;;13.30;6.80;;;;;;;24.52;61.48;100021.31;105415;1284;110501;-87
2022/08/20 06:50:21;;;;;;;11.80;7.10;;;;;;;24.49;61.36;100022.02;104334;1284;99088;-87
2022/08/20 06:52:49;;;;;;;10.80;6.40;;;;;;;24.42;61.49;100033.67;104595;1283;108469;-87
2022/08/20 06:55:20;;;;;;;12.90;6.70;;;;;;;24.42;61.34;100032.77;104332;1284;139963;-85
2022/08/20 06:58:00;;;;;;;12.60;6.50;;;;;;;24.44;61.54;100032.24;104578;1284;95218;-88
2022/08/20 07:00:30;;;;;;;11.40;6.80;;;;;;;24.45;61.39;100032.70;104287;1284;141206;-87
2022/08/20 07:03:00;;;;;;;11.10;7.20;;;;;;;24.46;61.47;100032.21;104478;1283;100017;-88
2022/08/20 07:05:29;;;;;;;11.80;6.80;;;;;;;24.45;61.69;100036.82;105222;1284;107770;-92
2022/08/20 07:07:58;;;;;;;11.60;6.80;;;;;;;24.47;61.69;100039.21;104454;1284;140644;-90
2022/08/20 07:10:27;;;;;;;11.00;6.10;;;;;;;24.56;62.21;100034.22;104372;1282;96250;-89
2022/08/20 07:12:59;;;;;;;11.20;6.80;;;;;;;24.64;61.37;100036.05;104133;1283;139374;-86
2022/08/20 07:15:27;;;;;;;13.70;6.80;;;;;;;24.69;61.30;100033.81;104363;1282;98950;-87
2022/08/20 07:17:59;;;;;;;10.60;7.00;;;;;;;24.69;61.05;100034.36;104262;1282;138972;-85
2022/08/20 07:20:30;;;;;;;10.40;6.90;;;;;;;24.70;61.65;100034.61;104089;1283;95327;-86
2022/08/20 07:22:59;;;;;;;10.60;6.40;;;;;;;24.80;62.01;100034.27;104116;1284;97495;-85
2022/08/20 07:25:29;;;;;;;10.00;6.50;;;;;;;24.93;61.34;100036.34;103962;1283;138912;-86
2022/08/20 07:28:03;;;;;;;10.10;6.20;;;;;;;24.95;60.63;100034.31;104231;1284;98401;-85
2022/08/20 07:33:28;;;;;;;12.50;7.20;;;;;;;25.10;60.49;100028.36;104458;1284;95254;-86
2022/08/20 07:36:04;;;;;;;11.00;6.90;;;;;;;25.09;59.98;100029.64;104385;1284;138679;-85
2022/08/20 07:38:33;;;;;;;29.10;18.60;;;;;;;25.05;60.35;100031.79;104587;1284;110470;-89
2022/08/20 07:41:11;;;;;;;11.50;7.40;;;;;;;25.12;59.94;100032.08;104522;1282;99075;-86
2022/08/20 07:43:43;;;;;;;11.40;6.50;;;;;;;25.20;59.64;100028.34;104173;1284;139415;-86
2022/08/20 07:46:17;;;;;;;11.20;6.70;;;;;;;25.38;59.51;100027.48;104337;1284;95221;-85
2022/08/20 07:48:50;;;;;;;13.00;6.90;;;;;;;25.56;59.12;100030.79;104074;1284;140014;-84
2022/08/20 07:51:21;;;;;;;14.60;7.50;;;;;;;25.75;58.78;100034.13;104371;1284;110154;-86
2022/08/20 07:53:50;;;;;;;11.20;6.90;;;;;;;25.97;59.10;100033.30;104310;1282;98962;-85
2022/08/20 07:56:21;;;;;;;12.30;7.10;;;;;;;26.11;57.70;100030.10;104301;1282;109512;-84
2022/08/20 07:58:54;;;;;;;12.20;6.80;;;;;;;26.13;57.73;100029.92;104558;1282;95779;-86
2022/08/20 08:01:27;;;;;;;37.60;26.70;;;;;;;26.08;56.97;100027.36;104417;1282;139140;-87
2022/08/20 08:03:56;;;;;;;11.50;8.00;;;;;;;25.98;57.76;100018.86;104491;1282;109845;-86
2022/08/20 08:06:26;;;;;;;10.30;7.00;;;;;;;26.01;58.62;100011.08;104239;1282;140538;-86
2022/08/20 08:09:05;;;;;;;10.80;6.60;;;;;;;26.16;57.25;100007.80;105208;1282;108523;-86
2022/08/20 08:11:36;;;;;;;10.30;6.50;;;;;;;26.24;56.88;100006.35;104583;1282;95379;-88
2022/08/20 08:14:08;;;;;;;11.90;6.10;;;;;;;26.36;56.05;100006.90;104366;1284;138829;-86
2022/08/20 08:16:37;;;;;;;12.70;6.80;;;;;;;26.48;55.63;100003.08;104262;1283;110295;-84
2022/08/20 08:19:08;;;;;;;10.00;6.40;;;;;;;26.68;56.31;100000.55;104314;1283;142334;-86
2022/08/20 08:21:36;;;;;;;11.60;6.30;;;;;;;26.93;55.92;99998.88;104556;1282;109441;-85
2022/08/20 08:24:04;;;;;;;10.60;6.30;;;;;;;27.09;55.26;99997.16;104199;1285;138054;-85
2022/08/20 08:26:32;;;;;;;11.70;6.70;;;;;;;27.11;54.37;99996.35;104486;1282;95580;-86
2022/08/20 08:29:01;;;;;;;12.30;6.80;;;;;;;27.12;54.45;99995.92;104712;1283;110133;-85
2022/08/20 08:31:29;;;;;;;12.20;6.80;;;;;;;27.21;55.14;99995.16;104301;1284;143089;-85
2022/08/20 08:33:57;;;;;;;10.90;7.30;;;;;;;27.50;54.89;99991.88;104505;1284;109340;-83
2022/08/20 08:36:26;;;;;;;16.40;10.40;;;;;;;27.78;54.63;99984.30;104397;1284;144396;-86
2022/08/20 08:38:55;;;;;;;13.50;7.20;;;;;;;28.04;53.36;99986.77;104815;1284;95275;-86
2022/08/20 08:41:48;;;;;;;14.40;6.50;;;;;;;28.18;52.59;99992.23;104602;1283;108785;-89
2022/08/20 08:44:23;;;;;;;12.80;6.30;;;;;;;28.22;51.48;99991.34;104593;1284;138750;-87
2022/08/20 08:47:12;;;;;;;11.00;6.50;;;;;;;28.16;52.50;99990.77;104887;1282;141484;-87
2022/08/20 08:49:40;;;;;;;10.50;5.90;;;;;;;28.30;52.21;99996.22;104847;1282;95879;-86
2022/08/20 08:52:21;;;;;;;12.00;5.20;;;;;;;28.38;50.82;100001.52;104604;1284;139067;-83
2022/08/20 08:54:54;;;;;;;11.50;7.60;;;;;;;28.48;51.14;100005.19;104401;1284;109281;-85
2022/08/20 08:57:23;;;;;;;11.30;6.80;;;;;;;28.57;50.53;100006.10;104838;1284;98428;-85
2022/08/20 09:00:12;;;;;;;11.30;5.80;;;;;;;28.67;50.86;100004.95;104738;1283;138690;-88
2022/08/20 09:03:00;;;;;;;9.50;6.00;;;;;;;28.75;50.24;100004.35;105050;1282;95408;-89
2022/08/20 09:05:54;;;;;;;13.00;6.10;;;;;;;28.89;50.51;100003.82;104974;1282;139838;-86
2022/08/20 09:08:47;;;;;;;12.00;6.00;;;;;;;29.15;49.61;100011.08;104915;1284;108923;-85
2022/08/20 09:11:15;;;;;;;12.90;8.50;;;;;;;29.18;48.72;100007.61;105018;1284;140172;-86
2022/08/20 09:13:43;;;;;;;12.30;5.90;;;;;;;29.32;49.04;100011.23;105114;1284;109649;-86
2022/08/20 09:16:12;;;;;;;11.00;5.80;;;;;;;29.48;49.00;100013.48;104768;1284;142534;-86
2022/08/20 09:18:40;;;;;;;11.00;5.40;;;;;;;29.81;48.74;100018.92;105159;1284;95238;-87
2022/08/20 09:21:09;;;;;;;10.70;5.60;;;;;;;30.03;46.54;100014.77;104949;1284;110042;-86
2022/08/20 09:23:38;;;;;;;9.90;5.30;;;;;;;30.43;46.50;100005.62;104358;1284;140589;-86
2022/08/20 09:26:06;;;;;;;11.40;5.40;;;;;;;31.19;44.94;100002.21;104690;1284;108566;-87
2022/08/20 09:28:35;;;;;;;9.70;5.10;;;;;;;31.94;42.64;100005.42;105148;1283;137462;-87
2022/08/20 09:31:09;;;;;;;10.50;5.30;;;;;;;32.53;41.88;99996.88;104892;1284;95270;-87
2022/08/20 09:33:36;;;;;;;10.30;4.70;;;;;;;33.25;41.57;99998.84;104800;1282;108304;-84
2022/08/20 09:36:04;;;;;;;11.50;5.10;;;;;;;33.80;39.15;100001.94;104589;1284;100710;-85
2022/08/20 09:38:53;;;;;;;10.00;4.80;;;;;;;34.25;38.33;99997.93;104632;1284;108106;-87
2022/08/20 09:41:22;;;;;;;9.80;4.80;;;;;;;34.56;37.43;99998.19;104635;1282;140440;-85
2022/08/20 09:43:50;;;;;;;10.20;5.00;;;;;;;35.21;37.91;99997.36;104714;1282;95260;-86
2022/08/20 09:46:17;;;;;;;9.90;4.80;;;;;;;36.09;36.64;99996.98;104505;1283;140537;-85
2022/08/20 09:48:45;;;;;;;11.70;4.80;;;;;;;36.76;34.78;99999.23;104683;1284;98496;-84
2022/08/20 09:51:13;;;;;;;10.00;5.20;;;;;;;37.16;34.35;99997.41;104526;1284;109661;-83
2022/08/20 09:53:42;;;;;;;11.00;4.50;;;;;;;37.64;33.56;99996.79;104386;1285;140179;-84
2022/08/20 09:56:10;;;;;;;9.30;4.40;;;;;;;38.08;32.69;99998.27;104847;1284;95200;-85
2022/08/20 09:58:58;;;;;;;8.00;4.20;;;;;;;38.23;31.48;99998.58;105175;1284;138460;-86
2022/08/20 10:01:30;;;;;;;12.80;9.00;;;;;;;37.94;31.40;99991.58;104780;1284;1731967;-89
2022/08/20 10:03:58;;;;;;;8.50;4.30;;;;;;;37.81;31.19;99987.98;105178;1284;140150;-84
2022/08/20 10:06:26;;;;;;;9.80;4.40;;;;;;;37.42;30.98;99982.74;104311;1284;95685;-86
2022/08/20 10:08:54;;;;;;;10.00;4.60;;;;;;;37.47;32.01;99978.34;104567;1285;94781;-85
2022/08/20 10:11:22;;;;;;;9.00;4.20;;;;;;;37.75;31.05;99975.35;104440;1284;138381;-86
2022/08/20 10:13:51;;;;;;;8.40;4.10;;;;;;;38.00;31.97;99973.94;104799;1283;98326;-87
2022/08/20 10:16:19;;;;;;;9.60;4.30;;;;;;;37.92;30.91;99972.99;104436;1283;138007;-86
2022/08/20 10:18:50;;;;;;;7.90;4.20;;;;;;;37.91;31.79;99969.17;104488;1284;95453;-86
2022/08/20 10:21:18;;;;;;;8.40;4.20;;;;;;;38.10;31.15;99969.36;104564;1282;95157;-84
2022/08/20 10:23:46;;;;;;;8.20;4.30;;;;;;;38.11;30.99;99965.11;104517;1284;139999;-86
2022/08/20 10:26:13;;;;;;;8.30;4.20;;;;;;;38.14;31.40;99964.58;104842;1282;98339;-86
2022/08/20 10:28:43;;;;;;;8.60;4.00;;;;;;;38.33;31.07;99960.64;104667;1284;155365;-85
2022/08/20 10:31:11;;;;;;;9.00;4.10;;;;;;;38.55;30.13;99958.78;105604;1284;95157;-85
2022/08/20 10:33:41;;;;;;;8.30;4.30;;;;;;;38.80;31.35;99956.20;105825;1284;138527;-85
2022/08/20 10:36:14;;;;;;;9.00;4.00;;;;;;;39.26;29.33;99955.48;105556;1284;108051;-83
2022/08/20 10:38:43;;;;;;;7.00;3.80;;;;;;;39.43;28.99;99952.27;105100;1284;99055;-86
2022/08/20 10:41:11;;;;;;;8.90;4.20;;;;;;;39.72;28.93;99959.69;104663;1284;140010;-85
2022/08/20 10:43:39;;;;;;;11.40;3.90;;;;;;;39.88;28.57;99959.08;104813;1284;95971;-84
2022/08/20 10:46:07;;;;;;;8.80;4.20;;;;;;;40.10;29.19;99965.30;104620;1282;139361;-83
2022/08/20 10:48:34;;;;;;;8.70;3.80;;;;;;;40.37;28.07;99967.38;104672;1285;108746;-86
2022/08/20 10:51:03;;;;;;;8.10;3.70;;;;;;;40.52;28.11;99974.49;104627;1283;100333;-86
2022/08/20 10:53:31;;;;;;;8.70;3.50;;;;;;;40.72;27.40;99968.30;104766;1284;140029;-84
2022/08/20 10:56:00;;;;;;;7.90;4.00;;;;;;;40.86;27.54;99970.09;104751;1282;95604;-83
2022/08/20 10:58:28;;;;;;;10.30;4.30;;;;;;;40.24;28.26;99972.90;104393;1283;138930;-83
2022/08/20 11:01:09;;;;;;;8.00;4.10;;;;;;;39.38;30.12;99972.63;104454;1284;106700;-85
2022/08/20 11:03:37;;;;;;;8.20;3.90;;;;;;;38.91;29.95;99973.25;104549;1284;140036;-85
2022/08/20 11:06:05;;;;;;;7.20;3.60;;;;;;;38.04;30.26;99970.73;104647;1284;107885;-88
2022/08/20 11:08:33;;;;;;;8.90;4.00;;;;;;;37.12;30.66;99964.95;104532;1284;95819;-86
2022/08/20 11:11:04;;;;;;;8.50;3.90;;;;;;;36.51;32.44;99965.27;104407;1284;139735;-84
2022/08/20 11:13:33;;;;;;;9.00;4.10;;;;;;;36.11;33.29;99958.39;104550;1284;109706;-86
2022/08/20 11:16:02;;;;;;;10.20;4.30;;;;;;;35.72;33.63;99954.65;104412;1284;139729;-85
2022/08/20 11:18:30;;;;;;;8.50;4.50;;;;;;;35.26;33.86;99951.77;104373;1284;108897;-85
2022/08/20 11:20:58;;;;;;;28.00;20.40;;;;;;;34.87;34.45;99952.83;104753;1283;95160;-86
2022/08/20 11:23:26;;;;;;;15.10;4.90;;;;;;;34.38;35.13;99955.13;104470;1284;141235;-84
2022/08/20 11:25:57;;;;;;;10.30;4.70;;;;;;;34.10;35.92;99951.89;104688;1282;109377;-85
2022/08/20 11:28:29;;;;;;;8.60;4.30;;;;;;;33.88;36.67;99955.02;104549;1284;140399;-89
2022/08/20 11:31:00;;;;;;;9.80;4.60;;;;;;;33.56;37.22;99962.88;104662;1284;109484;-86